sensor_id;sensor_type;location;lat;lon;timestamp;temperature;humidity
64796;DHT22;51229;51.980;6.722;2023-05-10T00:00:15;12.10;99.90
64796;DHT22;51229;51.980;6.722;2023-05-10T00:02:41;12.10;99.90
64796;DHT22;51229;51.980;6.722;2023-05-10T00:05:08;12.10;99.90
64796;DHT22;51229;51.980;6.722;2023-05-10T00:07:34;12.10;99.90
64796;DHT22;51229;51.980;6.722;2023-05-10T00:10:00;12.20;99.90
64796;DHT22;51229;51.980;6.722;2023-05-10T00:12:26;12.10;99.90
64796;DHT22;51229;51.980;6.722;2023-05-10T00:14:51;12.10;99.90
64796;DHT22;51229;51.980;6.722;2023-05-10T00:17:17;12.10;99.90
64796;DHT22;51229;51.980;6.722;2023-05-10T00:19:42;12.10;99.90
64796;DHT22;51229;51.980;6.722;2023-05-10T00:22:08;12.10;99.90
64796;DHT22;51229;51.980;6.722;2023-05-10T00:24:34;12.10;99.90
64796;DHT22;51229;51.980;6.722;2023-05-10T00:26:59;12.10;99.90
64796;DHT22;51229;51.980;6.722;2023-05-10T00:29:26;12.10;99.90
64796;DHT22;51229;51.980;6.722;2023-05-10T00:31:53;12.00;99.90
64796;DHT22;51229;51.980;6.722;2023-05-10T00:34:19;12.00;99.90
64796;DHT22;51229;51.980;6.722;2023-05-10T00:36:44;12.10;99.90
64796;DHT22;51229;51.980;6.722;2023-05-10T00:39:10;11.90;99.90
64796;DHT22;51229;51.980;6.722;2023-05-10T00:41:36;12.00;99.90
64796;DHT22;51229;51.980;6.722;2023-05-10T00:44:04;11.90;99.90
64796;DHT22;51229;51.980;6.722;2023-05-10T00:46:30;11.90;99.90
64796;DHT22;51229;51.980;6.722;2023-05-10T00:48:57;11.90;99.90
64796;DHT22;51229;51.980;6.722;2023-05-10T00:51:23;11.80;99.90
64796;DHT22;51229;51.980;6.722;2023-05-10T00:53:49;11.70;99.90
64796;DHT22;51229;51.980;6.722;2023-05-10T00:56:16;11.70;99.90
64796;DHT22;51229;51.980;6.722;2023-05-10T00:58:42;11.60;99.90
64796;DHT22;51229;51.980;6.722;2023-05-10T01:01:08;11.70;99.90
64796;DHT22;51229;51.980;6.722;2023-05-10T01:03:35;11.60;99.90
64796;DHT22;51229;51.980;6.722;2023-05-10T01:06:01;11.60;99.90
64796;DHT22;51229;51.980;6.722;2023-05-10T01:08:27;11.60;99.90
64796;DHT22;51229;51.980;6.722;2023-05-10T01:10:54;11.60;99.90
64796;DHT22;51229;51.980;6.722;2023-05-10T01:13:37;11.50;99.90
64796;DHT22;51229;51.980;6.722;2023-05-10T01:16:04;11.50;99.90
64796;DHT22;51229;51.980;6.722;2023-05-10T01:18:36;11.60;99.90
64796;DHT22;51229;51.980;6.722;2023-05-10T01:21:31;11.50;99.90
64796;DHT22;51229;51.980;6.722;2023-05-10T01:24:09;11.40;99.90
64796;DHT22;51229;51.980;6.722;2023-05-10T01:41:05;11.40;99.90
64796;DHT22;51229;51.980;6.722;2023-05-10T01:43:39;11.40;99.90
64796;DHT22;51229;51.980;6.722;2023-05-10T01:46:16;11.30;99.90
64796;DHT22;51229;51.980;6.722;2023-05-10T01:48:53;11.40;99.90
64796;DHT22;51229;51.980;6.722;2023-05-10T01:51:25;11.30;99.90
64796;DHT22;51229;51.980;6.722;2023-05-10T01:53:58;11.20;99.90
64796;DHT22;51229;51.980;6.722;2023-05-10T01:56:26;11.20;99.90
64796;DHT22;51229;51.980;6.722;2023-05-10T01:58:54;11.30;99.90
64796;DHT22;51229;51.980;6.722;2023-05-10T02:01:21;11.00;99.90
64796;DHT22;51229;51.980;6.722;2023-05-10T02:03:50;11.00;99.90
64796;DHT22;51229;51.980;6.722;2023-05-10T02:06:16;11.00;99.90
64796;DHT22;51229;51.980;6.722;2023-05-10T02:08:45;11.20;99.90
64796;DHT22;51229;51.980;6.722;2023-05-10T02:11:13;11.10;99.90
64796;DHT22;51229;51.980;6.722;2023-05-10T02:13:39;11.20;99.90
64796;DHT22;51229;51.980;6.722;2023-05-10T02:16:07;11.20;99.90
64796;DHT22;51229;51.980;6.722;2023-05-10T02:18:34;11.30;99.90
64796;DHT22;51229;51.980;6.722;2023-05-10T02:21:02;11.20;99.90
64796;DHT22;51229;51.980;6.722;2023-05-10T02:23:29;11.20;99.90
64796;DHT22;51229;51.980;6.722;2023-05-10T02:25:56;11.00;99.90
64796;DHT22;51229;51.980;6.722;2023-05-10T02:28:23;10.90;99.90
64796;DHT22;51229;51.980;6.722;2023-05-10T02:30:51;11.10;99.90
64796;DHT22;51229;51.980;6.722;2023-05-10T02:33:18;11.20;99.90
64796;DHT22;51229;51.980;6.722;2023-05-10T02:35:46;11.10;99.90
64796;DHT22;51229;51.980;6.722;2023-05-10T02:38:12;11.10;99.90
64796;DHT22;51229;51.980;6.722;2023-05-10T02:40:40;11.10;99.90
64796;DHT22;51229;51.980;6.722;2023-05-10T02:43:12;10.90;99.90
64796;DHT22;51229;51.980;6.722;2023-05-10T02:45:38;10.70;99.90
64796;DHT22;51229;51.980;6.722;2023-05-10T02:48:05;11.00;99.90
64796;DHT22;51229;51.980;6.722;2023-05-10T02:50:33;11.00;99.90
64796;DHT22;51229;51.980;6.722;2023-05-10T02:53:11;11.10;99.90
64796;DHT22;51229;51.980;6.722;2023-05-10T02:55:41;10.90;99.90
64796;DHT22;51229;51.980;6.722;2023-05-10T02:58:08;11.00;99.90
64796;DHT22;51229;51.980;6.722;2023-05-10T03:00:34;11.10;99.90
64796;DHT22;51229;51.980;6.722;2023-05-10T03:03:02;11.00;99.90
64796;DHT22;51229;51.980;6.722;2023-05-10T03:05:29;11.10;99.90
64796;DHT22;51229;51.980;6.722;2023-05-10T03:07:59;11.20;99.90
64796;DHT22;51229;51.980;6.722;2023-05-10T03:10:27;11.10;99.90
64796;DHT22;51229;51.980;6.722;2023-05-10T03:13:13;11.00;99.90
64796;DHT22;51229;51.980;6.722;2023-05-10T03:15:58;10.80;99.90
64796;DHT22;51229;51.980;6.722;2023-05-10T03:18:50;10.90;99.90
64796;DHT22;51229;51.980;6.722;2023-05-10T03:21:22;10.80;99.90
64796;DHT22;51229;51.980;6.722;2023-05-10T03:24:07;10.40;99.90
64796;DHT22;51229;51.980;6.722;2023-05-10T03:26:37;10.50;99.90
64796;DHT22;51229;51.980;6.722;2023-05-10T03:29:08;10.70;99.90
64796;DHT22;51229;51.980;6.722;2023-05-10T03:31:35;10.80;99.90
64796;DHT22;51229;51.980;6.722;2023-05-10T03:34:01;10.60;99.90
64796;DHT22;51229;51.980;6.722;2023-05-10T03:36:27;10.50;99.90
64796;DHT22;51229;51.980;6.722;2023-05-10T03:38:54;10.70;99.90
64796;DHT22;51229;51.980;6.722;2023-05-10T03:41:20;10.90;99.90
64796;DHT22;51229;51.980;6.722;2023-05-10T03:43:47;10.90;99.90
64796;DHT22;51229;51.980;6.722;2023-05-10T03:46:12;10.90;99.90
64796;DHT22;51229;51.980;6.722;2023-05-10T03:48:38;11.10;99.90
64796;DHT22;51229;51.980;6.722;2023-05-10T03:51:04;11.10;99.90
64796;DHT22;51229;51.980;6.722;2023-05-10T03:53:30;11.00;99.90
64796;DHT22;51229;51.980;6.722;2023-05-10T03:55:56;11.10;99.90
64796;DHT22;51229;51.980;6.722;2023-05-10T03:58:22;11.10;99.90
64796;DHT22;51229;51.980;6.722;2023-05-10T04:00:47;11.10;99.90
64796;DHT22;51229;51.980;6.722;2023-05-10T04:03:14;11.10;99.90
64796;DHT22;51229;51.980;6.722;2023-05-10T04:05:39;11.10;99.90
64796;DHT22;51229;51.980;6.722;2023-05-10T04:08:06;11.10;99.90
64796;DHT22;51229;51.980;6.722;2023-05-10T04:10:32;11.10;99.90
64796;DHT22;51229;51.980;6.722;2023-05-10T04:12:58;11.10;99.90
64796;DHT22;51229;51.980;6.722;2023-05-10T04:15:23;10.90;99.90
64796;DHT22;51229;51.980;6.722;2023-05-10T04:17:49;10.60;99.90
64796;DHT22;51229;51.980;6.722;2023-05-10T04:20:15;10.60;99.90
64796;DHT22;51229;51.980;6.722;2023-05-10T04:22:41;10.60;99.90
64796;DHT22;51229;51.980;6.722;2023-05-10T04:25:07;10.40;99.90
64796;DHT22;51229;51.980;6.722;2023-05-10T04:27:33;10.50;99.90
64796;DHT22;51229;51.980;6.722;2023-05-10T04:29:59;10.50;99.90
64796;DHT22;51229;51.980;6.722;2023-05-10T04:32:24;10.60;99.90
64796;DHT22;51229;51.980;6.722;2023-05-10T04:34:50;10.60;99.90
64796;DHT22;51229;51.980;6.722;2023-05-10T04:37:17;10.60;99.90
64796;DHT22;51229;51.980;6.722;2023-05-10T04:39:45;10.50;99.90
64796;DHT22;51229;51.980;6.722;2023-05-10T04:42:11;10.70;99.90
64796;DHT22;51229;51.980;6.722;2023-05-10T04:44:37;10.80;99.90
64796;DHT22;51229;51.980;6.722;2023-05-10T04:47:02;10.80;99.90
64796;DHT22;51229;51.980;6.722;2023-05-10T04:49:29;10.70;99.90
64796;DHT22;51229;51.980;6.722;2023-05-10T04:51:55;10.70;99.90
64796;DHT22;51229;51.980;6.722;2023-05-10T04:54:21;10.70;99.90
64796;DHT22;51229;51.980;6.722;2023-05-10T04:56:46;10.80;99.90
64796;DHT22;51229;51.980;6.722;2023-05-10T04:59:12;10.90;99.90
64796;DHT22;51229;51.980;6.722;2023-05-10T05:01:38;10.90;99.90
64796;DHT22;51229;51.980;6.722;2023-05-10T05:04:03;11.00;99.90
64796;DHT22;51229;51.980;6.722;2023-05-10T05:06:29;11.00;99.90
64796;DHT22;51229;51.980;6.722;2023-05-10T05:08:55;11.10;99.90
64796;DHT22;51229;51.980;6.722;2023-05-10T05:11:20;11.00;99.90
64796;DHT22;51229;51.980;6.722;2023-05-10T05:13:46;11.00;99.90
64796;DHT22;51229;51.980;6.722;2023-05-10T05:16:12;10.80;99.90
64796;DHT22;51229;51.980;6.722;2023-05-10T05:18:38;10.80;99.90
64796;DHT22;51229;51.980;6.722;2023-05-10T05:21:13;10.70;99.90
64796;DHT22;51229;51.980;6.722;2023-05-10T05:23:39;10.90;99.90
64796;DHT22;51229;51.980;6.722;2023-05-10T05:26:05;10.90;99.90
64796;DHT22;51229;51.980;6.722;2023-05-10T05:28:31;10.70;99.90
64796;DHT22;51229;51.980;6.722;2023-05-10T05:30:59;10.70;99.90
64796;DHT22;51229;51.980;6.722;2023-05-10T05:33:25;10.70;99.90
64796;DHT22;51229;51.980;6.722;2023-05-10T05:35:50;10.80;99.90
64796;DHT22;51229;51.980;6.722;2023-05-10T05:38:16;10.90;99.90
64796;DHT22;51229;51.980;6.722;2023-05-10T05:40:42;11.10;99.90
64796;DHT22;51229;51.980;6.722;2023-05-10T05:43:08;11.00;99.90
64796;DHT22;51229;51.980;6.722;2023-05-10T05:45:34;10.80;99.90
64796;DHT22;51229;51.980;6.722;2023-05-10T05:48:00;11.00;99.90
64796;DHT22;51229;51.980;6.722;2023-05-10T05:50:25;10.80;99.90
64796;DHT22;51229;51.980;6.722;2023-05-10T05:52:51;10.80;99.90
64796;DHT22;51229;51.980;6.722;2023-05-10T05:55:17;10.70;99.90
64796;DHT22;51229;51.980;6.722;2023-05-10T05:57:43;10.70;99.90
64796;DHT22;51229;51.980;6.722;2023-05-10T06:00:09;11.00;99.90
64796;DHT22;51229;51.980;6.722;2023-05-10T06:02:43;11.20;99.90
64796;DHT22;51229;51.980;6.722;2023-05-10T06:05:09;11.20;99.90
64796;DHT22;51229;51.980;6.722;2023-05-10T06:07:35;11.40;99.90
64796;DHT22;51229;51.980;6.722;2023-05-10T06:10:00;11.40;99.90
64796;DHT22;51229;51.980;6.722;2023-05-10T06:12:26;11.50;99.90
64796;DHT22;51229;51.980;6.722;2023-05-10T06:14:52;11.40;99.90
64796;DHT22;51229;51.980;6.722;2023-05-10T06:17:17;11.50;99.90
64796;DHT22;51229;51.980;6.722;2023-05-10T06:19:43;11.10;99.90
64796;DHT22;51229;51.980;6.722;2023-05-10T06:22:09;11.00;99.90
64796;DHT22;51229;51.980;6.722;2023-05-10T06:24:34;11.30;99.90
64796;DHT22;51229;51.980;6.722;2023-05-10T06:27:00;11.20;99.90
64796;DHT22;51229;51.980;6.722;2023-05-10T06:29:27;11.30;99.90
64796;DHT22;51229;51.980;6.722;2023-05-10T06:31:53;11.30;99.90
64796;DHT22;51229;51.980;6.722;2023-05-10T06:34:19;11.40;99.90
64796;DHT22;51229;51.980;6.722;2023-05-10T06:36:45;11.40;99.90
64796;DHT22;51229;51.980;6.722;2023-05-10T06:39:11;11.30;99.90
64796;DHT22;51229;51.980;6.722;2023-05-10T06:41:37;11.30;99.90
64796;DHT22;51229;51.980;6.722;2023-05-10T06:44:03;11.40;99.90
64796;DHT22;51229;51.980;6.722;2023-05-10T06:46:29;11.40;99.90
64796;DHT22;51229;51.980;6.722;2023-05-10T06:48:55;11.30;99.90
64796;DHT22;51229;51.980;6.722;2023-05-10T06:51:20;11.50;99.90
64796;DHT22;51229;51.980;6.722;2023-05-10T06:53:46;11.60;99.90
64796;DHT22;51229;51.980;6.722;2023-05-10T06:56:12;11.60;99.90
64796;DHT22;51229;51.980;6.722;2023-05-10T06:58:38;11.60;99.90
64796;DHT22;51229;51.980;6.722;2023-05-10T07:01:05;11.50;99.90
64796;DHT22;51229;51.980;6.722;2023-05-10T07:03:31;11.40;99.90
64796;DHT22;51229;51.980;6.722;2023-05-10T07:06:03;11.30;99.90
64796;DHT22;51229;51.980;6.722;2023-05-10T07:08:33;11.50;99.90
64796;DHT22;51229;51.980;6.722;2023-05-10T07:11:05;11.50;99.90
64796;DHT22;51229;51.980;6.722;2023-05-10T07:13:34;11.50;99.90
64796;DHT22;51229;51.980;6.722;2023-05-10T07:16:00;11.40;99.90
64796;DHT22;51229;51.980;6.722;2023-05-10T07:18:27;11.50;99.90
64796;DHT22;51229;51.980;6.722;2023-05-10T07:20:53;11.50;99.90
64796;DHT22;51229;51.980;6.722;2023-05-10T07:23:19;11.60;99.90
64796;DHT22;51229;51.980;6.722;2023-05-10T07:25:46;11.70;99.90
64796;DHT22;51229;51.980;6.722;2023-05-10T07:28:12;11.70;99.90
64796;DHT22;51229;51.980;6.722;2023-05-10T07:30:38;11.80;99.90
64796;DHT22;51229;51.980;6.722;2023-05-10T07:33:04;11.60;99.90
64796;DHT22;51229;51.980;6.722;2023-05-10T07:35:30;11.60;99.90
64796;DHT22;51229;51.980;6.722;2023-05-10T07:37:55;11.40;99.90
64796;DHT22;51229;51.980;6.722;2023-05-10T07:40:21;11.20;99.90
64796;DHT22;51229;51.980;6.722;2023-05-10T07:42:47;11.60;99.90
64796;DHT22;51229;51.980;6.722;2023-05-10T07:45:12;11.60;99.90
64796;DHT22;51229;51.980;6.722;2023-05-10T07:47:38;11.80;99.90
64796;DHT22;51229;51.980;6.722;2023-05-10T07:50:04;11.80;99.90
64796;DHT22;51229;51.980;6.722;2023-05-10T07:52:30;11.90;99.90
64796;DHT22;51229;51.980;6.722;2023-05-10T07:54:55;11.90;99.90
64796;DHT22;51229;51.980;6.722;2023-05-10T07:57:22;11.70;99.90
64796;DHT22;51229;51.980;6.722;2023-05-10T07:59:48;11.80;99.90
64796;DHT22;51229;51.980;6.722;2023-05-10T08:02:13;11.90;99.90
64796;DHT22;51229;51.980;6.722;2023-05-10T08:04:39;12.00;99.90
64796;DHT22;51229;51.980;6.722;2023-05-10T08:07:05;11.90;99.90
64796;DHT22;51229;51.980;6.722;2023-05-10T08:09:30;12.00;99.90
64796;DHT22;51229;51.980;6.722;2023-05-10T08:11:56;12.20;99.90
64796;DHT22;51229;51.980;6.722;2023-05-10T08:14:22;12.30;99.90
64796;DHT22;51229;51.980;6.722;2023-05-10T08:16:47;12.20;99.90
64796;DHT22;51229;51.980;6.722;2023-05-10T08:19:13;12.00;99.90
64796;DHT22;51229;51.980;6.722;2023-05-10T08:21:38;12.10;99.90
64796;DHT22;51229;51.980;6.722;2023-05-10T08:24:07;12.20;99.90
64796;DHT22;51229;51.980;6.722;2023-05-10T08:26:33;12.20;99.90
64796;DHT22;51229;51.980;6.722;2023-05-10T08:28:59;12.20;99.90
64796;DHT22;51229;51.980;6.722;2023-05-10T08:31:25;12.20;99.90
64796;DHT22;51229;51.980;6.722;2023-05-10T08:33:50;12.20;99.90
64796;DHT22;51229;51.980;6.722;2023-05-10T08:36:18;12.20;99.90
64796;DHT22;51229;51.980;6.722;2023-05-10T08:38:52;12.20;99.90
64796;DHT22;51229;51.980;6.722;2023-05-10T08:41:20;12.20;99.90
64796;DHT22;51229;51.980;6.722;2023-05-10T08:43:46;12.30;99.90
64796;DHT22;51229;51.980;6.722;2023-05-10T08:46:16;12.20;99.90
64796;DHT22;51229;51.980;6.722;2023-05-10T08:48:45;12.30;99.90
64796;DHT22;51229;51.980;6.722;2023-05-10T08:51:17;12.20;99.90
64796;DHT22;51229;51.980;6.722;2023-05-10T08:53:44;12.00;99.90
64796;DHT22;51229;51.980;6.722;2023-05-10T08:56:10;12.00;99.90
64796;DHT22;51229;51.980;6.722;2023-05-10T08:58:37;12.00;99.90
64796;DHT22;51229;51.980;6.722;2023-05-10T09:01:03;12.10;99.90
64796;DHT22;51229;51.980;6.722;2023-05-10T09:03:30;12.20;99.90
64796;DHT22;51229;51.980;6.722;2023-05-10T09:05:56;12.40;99.90
64796;DHT22;51229;51.980;6.722;2023-05-10T09:08:23;12.50;99.90
64796;DHT22;51229;51.980;6.722;2023-05-10T09:10:51;12.40;99.90
64796;DHT22;51229;51.980;6.722;2023-05-10T09:13:18;12.20;99.90
64796;DHT22;51229;51.980;6.722;2023-05-10T09:15:45;12.30;99.90
64796;DHT22;51229;51.980;6.722;2023-05-10T09:18:11;12.30;99.90
64796;DHT22;51229;51.980;6.722;2023-05-10T09:20:37;12.30;99.90
64796;DHT22;51229;51.980;6.722;2023-05-10T09:23:03;12.40;99.90
64796;DHT22;51229;51.980;6.722;2023-05-10T09:25:29;12.50;99.90
64796;DHT22;51229;51.980;6.722;2023-05-10T09:27:55;12.50;99.90
64796;DHT22;51229;51.980;6.722;2023-05-10T09:30:25;12.30;99.90
64796;DHT22;51229;51.980;6.722;2023-05-10T09:32:52;12.40;99.90
64796;DHT22;51229;51.980;6.722;2023-05-10T09:35:19;12.40;99.90
64796;DHT22;51229;51.980;6.722;2023-05-10T09:37:50;12.30;99.90
64796;DHT22;51229;51.980;6.722;2023-05-10T09:42:56;12.40;99.90
64796;DHT22;51229;51.980;6.722;2023-05-10T09:45:23;12.30;99.90
64796;DHT22;51229;51.980;6.722;2023-05-10T09:47:49;12.40;99.90
64796;DHT22;51229;51.980;6.722;2023-05-10T09:50:15;12.50;99.90
64796;DHT22;51229;51.980;6.722;2023-05-10T09:52:58;12.60;99.90
64796;DHT22;51229;51.980;6.722;2023-05-10T09:55:37;12.60;99.90
64796;DHT22;51229;51.980;6.722;2023-05-10T09:58:04;12.50;99.90
64796;DHT22;51229;51.980;6.722;2023-05-10T10:00:50;12.50;99.90
64796;DHT22;51229;51.980;6.722;2023-05-10T10:03:19;12.20;99.90
64796;DHT22;51229;51.980;6.722;2023-05-10T10:05:47;12.50;99.90
64796;DHT22;51229;51.980;6.722;2023-05-10T10:08:13;12.40;99.90
64796;DHT22;51229;51.980;6.722;2023-05-10T10:10:40;12.30;99.90
64796;DHT22;51229;51.980;6.722;2023-05-10T10:13:06;12.50;99.90
64796;DHT22;51229;51.980;6.722;2023-05-10T10:15:35;12.50;99.90
64796;DHT22;51229;51.980;6.722;2023-05-10T10:18:02;12.80;99.90
64796;DHT22;51229;51.980;6.722;2023-05-10T10:20:29;12.70;99.90
64796;DHT22;51229;51.980;6.722;2023-05-10T10:22:55;12.90;99.90
64796;DHT22;51229;51.980;6.722;2023-05-10T10:25:21;12.80;99.90
64796;DHT22;51229;51.980;6.722;2023-05-10T10:30:27;12.80;99.90
64796;DHT22;51229;51.980;6.722;2023-05-10T10:35:20;14.50;99.90
64796;DHT22;51229;51.980;6.722;2023-05-10T10:37:47;14.70;99.90
64796;DHT22;51229;51.980;6.722;2023-05-10T10:40:29;14.80;99.90
64796;DHT22;51229;51.980;6.722;2023-05-10T10:42:56;14.70;99.90
64796;DHT22;51229;51.980;6.722;2023-05-10T10:45:23;13.50;99.90
64796;DHT22;51229;51.980;6.722;2023-05-10T10:48:19;13.40;99.90
64796;DHT22;51229;51.980;6.722;2023-05-10T10:50:45;14.10;99.90
64796;DHT22;51229;51.980;6.722;2023-05-10T10:53:12;14.00;99.90
64796;DHT22;51229;51.980;6.722;2023-05-10T10:55:47;15.40;99.90
64796;DHT22;51229;51.980;6.722;2023-05-10T10:58:30;16.30;99.90
64796;DHT22;51229;51.980;6.722;2023-05-10T11:01:14;16.20;99.90
64796;DHT22;51229;51.980;6.722;2023-05-10T11:03:54;15.90;99.90
64796;DHT22;51229;51.980;6.722;2023-05-10T11:06:32;15.20;99.90
64796;DHT22;51229;51.980;6.722;2023-05-10T11:08:59;15.00;99.90
64796;DHT22;51229;51.980;6.722;2023-05-10T11:11:30;15.00;99.90
64796;DHT22;51229;51.980;6.722;2023-05-10T11:14:03;14.70;99.90
64796;DHT22;51229;51.980;6.722;2023-05-10T11:16:41;14.40;99.90
64796;DHT22;51229;51.980;6.722;2023-05-10T11:19:10;14.50;99.90
64796;DHT22;51229;51.980;6.722;2023-05-10T11:22:12;14.40;99.90
64796;DHT22;51229;51.980;6.722;2023-05-10T11:24:36;14.10;99.90
64796;DHT22;51229;51.980;6.722;2023-05-10T11:27:02;13.90;99.90
64796;DHT22;51229;51.980;6.722;2023-05-10T11:29:28;13.90;99.90
64796;DHT22;51229;51.980;6.722;2023-05-10T11:31:57;13.90;99.90
64796;DHT22;51229;51.980;6.722;2023-05-10T11:34:28;13.60;99.90
64796;DHT22;51229;51.980;6.722;2023-05-10T11:36:56;13.50;99.90
64796;DHT22;51229;51.980;6.722;2023-05-10T11:39:28;13.20;99.90
64796;DHT22;51229;51.980;6.722;2023-05-10T11:41:54;12.70;99.90
64796;DHT22;51229;51.980;6.722;2023-05-10T11:44:20;12.90;99.90
64796;DHT22;51229;51.980;6.722;2023-05-10T11:46:46;12.60;99.90
64796;DHT22;51229;51.980;6.722;2023-05-10T11:49:11;13.30;99.90
64796;DHT22;51229;51.980;6.722;2023-05-10T11:51:38;13.40;99.90
64796;DHT22;51229;51.980;6.722;2023-05-10T11:54:10;13.30;99.90
64796;DHT22;51229;51.980;6.722;2023-05-10T11:56:37;13.10;99.90
64796;DHT22;51229;51.980;6.722;2023-05-10T11:59:04;13.50;99.90
64796;DHT22;51229;51.980;6.722;2023-05-10T12:01:30;13.80;99.90
64796;DHT22;51229;51.980;6.722;2023-05-10T12:03:57;14.00;99.90
64796;DHT22;51229;51.980;6.722;2023-05-10T12:06:27;13.90;99.90
64796;DHT22;51229;51.980;6.722;2023-05-10T12:08:53;14.00;99.90
64796;DHT22;51229;51.980;6.722;2023-05-10T12:11:19;14.20;99.90
64796;DHT22;51229;51.980;6.722;2023-05-10T12:13:47;14.20;99.90
64796;DHT22;51229;51.980;6.722;2023-05-10T12:16:21;14.30;99.90
64796;DHT22;51229;51.980;6.722;2023-05-10T12:18:51;14.60;99.90
64796;DHT22;51229;51.980;6.722;2023-05-10T12:21:19;15.10;99.90
64796;DHT22;51229;51.980;6.722;2023-05-10T12:23:46;15.10;99.90
64796;DHT22;51229;51.980;6.722;2023-05-10T12:26:12;15.40;99.90
64796;DHT22;51229;51.980;6.722;2023-05-10T12:28:38;15.50;99.90
64796;DHT22;51229;51.980;6.722;2023-05-10T12:31:07;15.30;99.90
64796;DHT22;51229;51.980;6.722;2023-05-10T12:33:37;15.00;99.90
64796;DHT22;51229;51.980;6.722;2023-05-10T12:36:05;15.10;99.90
64796;DHT22;51229;51.980;6.722;2023-05-10T12:38:36;15.00;99.90
64796;DHT22;51229;51.980;6.722;2023-05-10T12:41:08;15.10;99.90
64796;DHT22;51229;51.980;6.722;2023-05-10T12:43:35;15.10;99.90
64796;DHT22;51229;51.980;6.722;2023-05-10T12:46:21;15.00;99.90
64796;DHT22;51229;51.980;6.722;2023-05-10T12:48:50;15.20;99.90
64796;DHT22;51229;51.980;6.722;2023-05-10T12:51:20;15.00;99.90
64796;DHT22;51229;51.980;6.722;2023-05-10T12:53:48;14.80;99.90
64796;DHT22;51229;51.980;6.722;2023-05-10T12:56:14;14.40;99.90
64796;DHT22;51229;51.980;6.722;2023-05-10T12:58:40;14.40;99.90
64796;DHT22;51229;51.980;6.722;2023-05-10T13:01:06;14.50;99.90
64796;DHT22;51229;51.980;6.722;2023-05-10T13:03:32;15.50;99.90
64796;DHT22;51229;51.980;6.722;2023-05-10T13:05:57;16.30;99.90
64796;DHT22;51229;51.980;6.722;2023-05-10T13:08:23;16.70;99.90
64796;DHT22;51229;51.980;6.722;2023-05-10T13:10:49;16.40;99.90
64796;DHT22;51229;51.980;6.722;2023-05-10T13:13:15;16.10;99.90
64796;DHT22;51229;51.980;6.722;2023-05-10T13:15:41;16.50;99.90
64796;DHT22;51229;51.980;6.722;2023-05-10T13:18:07;16.70;99.90
64796;DHT22;51229;51.980;6.722;2023-05-10T13:20:32;16.60;99.90
64796;DHT22;51229;51.980;6.722;2023-05-10T13:22:58;16.40;99.90
64796;DHT22;51229;51.980;6.722;2023-05-10T13:25:24;16.30;99.90
64796;DHT22;51229;51.980;6.722;2023-05-10T13:27:49;16.00;99.90
64796;DHT22;51229;51.980;6.722;2023-05-10T13:30:15;15.90;99.90
64796;DHT22;51229;51.980;6.722;2023-05-10T13:32:41;16.20;99.90
64796;DHT22;51229;51.980;6.722;2023-05-10T13:35:07;17.40;99.90
64796;DHT22;51229;51.980;6.722;2023-05-10T13:37:33;17.40;99.90
64796;DHT22;51229;51.980;6.722;2023-05-10T13:40:03;17.00;99.90
64796;DHT22;51229;51.980;6.722;2023-05-10T13:42:29;16.50;99.90
64796;DHT22;51229;51.980;6.722;2023-05-10T13:44:55;16.60;99.90
64796;DHT22;51229;51.980;6.722;2023-05-10T13:47:20;16.50;99.90
64796;DHT22;51229;51.980;6.722;2023-05-10T13:49:47;16.30;99.90
64796;DHT22;51229;51.980;6.722;2023-05-10T13:52:13;16.10;99.90
64796;DHT22;51229;51.980;6.722;2023-05-10T13:54:39;16.00;99.90
64796;DHT22;51229;51.980;6.722;2023-05-10T13:57:05;16.00;99.90
64796;DHT22;51229;51.980;6.722;2023-05-10T13:59:30;16.00;99.90
64796;DHT22;51229;51.980;6.722;2023-05-10T14:01:57;16.00;99.90
64796;DHT22;51229;51.980;6.722;2023-05-10T14:04:23;15.80;99.90
64796;DHT22;51229;51.980;6.722;2023-05-10T14:06:49;15.90;99.90
64796;DHT22;51229;51.980;6.722;2023-05-10T14:09:15;15.90;99.90
64796;DHT22;51229;51.980;6.722;2023-05-10T14:11:41;16.10;99.90
64796;DHT22;51229;51.980;6.722;2023-05-10T14:14:09;16.10;99.90
64796;DHT22;51229;51.980;6.722;2023-05-10T14:16:34;16.30;99.90
64796;DHT22;51229;51.980;6.722;2023-05-10T14:19:00;16.30;99.90
64796;DHT22;51229;51.980;6.722;2023-05-10T14:21:26;16.40;99.90
64796;DHT22;51229;51.980;6.722;2023-05-10T14:23:54;16.50;99.90
64796;DHT22;51229;51.980;6.722;2023-05-10T14:26:21;16.30;99.90
64796;DHT22;51229;51.980;6.722;2023-05-10T14:28:47;16.60;99.90
64796;DHT22;51229;51.980;6.722;2023-05-10T14:31:12;16.80;99.90
64796;DHT22;51229;51.980;6.722;2023-05-10T14:33:39;16.60;99.90
64796;DHT22;51229;51.980;6.722;2023-05-10T14:36:06;16.60;99.90
64796;DHT22;51229;51.980;6.722;2023-05-10T14:38:32;16.70;99.90
64796;DHT22;51229;51.980;6.722;2023-05-10T14:40:58;16.60;99.90
64796;DHT22;51229;51.980;6.722;2023-05-10T14:43:24;16.40;99.90
64796;DHT22;51229;51.980;6.722;2023-05-10T14:45:50;16.50;99.90
64796;DHT22;51229;51.980;6.722;2023-05-10T14:48:15;16.50;99.90
64796;DHT22;51229;51.980;6.722;2023-05-10T14:50:43;16.10;99.90
64796;DHT22;51229;51.980;6.722;2023-05-10T14:53:09;16.30;99.90
64796;DHT22;51229;51.980;6.722;2023-05-10T14:55:35;16.40;99.90
64796;DHT22;51229;51.980;6.722;2023-05-10T14:58:02;16.40;99.90
64796;DHT22;51229;51.980;6.722;2023-05-10T15:00:28;16.40;99.90
64796;DHT22;51229;51.980;6.722;2023-05-10T15:02:54;16.30;99.90
64796;DHT22;51229;51.980;6.722;2023-05-10T15:05:20;16.40;99.90
64796;DHT22;51229;51.980;6.722;2023-05-10T15:07:46;16.30;99.90
64796;DHT22;51229;51.980;6.722;2023-05-10T15:10:11;16.30;99.90
64796;DHT22;51229;51.980;6.722;2023-05-10T15:12:37;16.20;99.90
64796;DHT22;51229;51.980;6.722;2023-05-10T15:15:04;16.20;99.90
64796;DHT22;51229;51.980;6.722;2023-05-10T15:17:30;16.20;99.90
64796;DHT22;51229;51.980;6.722;2023-05-10T15:19:56;16.20;99.90
64796;DHT22;51229;51.980;6.722;2023-05-10T15:22:22;16.30;99.90
64796;DHT22;51229;51.980;6.722;2023-05-10T15:24:47;16.20;99.90
64796;DHT22;51229;51.980;6.722;2023-05-10T15:27:13;16.20;99.90
64796;DHT22;51229;51.980;6.722;2023-05-10T15:29:39;16.20;99.90
64796;DHT22;51229;51.980;6.722;2023-05-10T15:32:04;16.30;99.90
64796;DHT22;51229;51.980;6.722;2023-05-10T15:34:30;16.20;99.90
64796;DHT22;51229;51.980;6.722;2023-05-10T15:36:56;16.30;99.90
64796;DHT22;51229;51.980;6.722;2023-05-10T15:39:21;16.30;99.90
64796;DHT22;51229;51.980;6.722;2023-05-10T15:41:47;16.30;99.90
64796;DHT22;51229;51.980;6.722;2023-05-10T15:44:13;16.40;99.90
64796;DHT22;51229;51.980;6.722;2023-05-10T15:46:38;16.40;99.90
64796;DHT22;51229;51.980;6.722;2023-05-10T15:49:04;16.30;99.90
64796;DHT22;51229;51.980;6.722;2023-05-10T15:51:31;16.30;99.90
64796;DHT22;51229;51.980;6.722;2023-05-10T15:53:58;16.30;99.90